logo
Search for airport 
image banner adimage banner adimage banner ad
image banner ad

EYUT - Utena

Located in Utena, Lithuania

ICAO - EYUT, IATA -

Data provided by Airmate  

General information

Coordinates: N55°29'21" E25°43'5"
Elevation is 633 feet MSL.
Magnetic variation is 7° East
View others Airports in Utena County

Operational data

Special qualification required
Current time UTC:
Current local time:
Weather at : - ( 0 km )
METAR: KLSE 170722Z AUTO 12010KT 6SM -RA BR BKN018 OVC055 16/13 A2940 RMK AO2 LTG DSNT SE P0006 T01560133
View NOTAMs / SUP AIP / TFR affecting this airport [VIEW]
Communications frequencies: [VIEW]

Runways:

RWY identifierQFULength (ft)Width (ft)SurfaceLDA (ft)
11121°1870131GRASS
29301°1870131GRASS

Airport contact information

Address: Utena Lithuania

Satellite view of EYUT